General Servando Canales International Airport
MMMA : now visible

Airfield :











YOU CAN JOIN US ON...

 
LOGIN :

Register | Disclaimer

   EN    FR    IT 

 









Legend :    VFR   Marginal VFR   IFR   Intensive IFR   Very Intensive IFR
Visi :
Ceiling :
>= 8 km
>= 3000ft
5 to 8 km
1000 to 3000 ft
1500m to 5 km
500 to 1000 ft
800 to 1500m
200 to 500 ft
< 800m
< 200 ft
Symbols :   Thunderstorms  Fog  Heavy snow  Heavy precipitations  Wind > 20 kt






- Airport Elevation : 25 ft
- IATA code : MAM


MMMA - General Servando Canales International

CURRENT METAR :
  • 171445Z 13011KT 8SM SCT070 BKN200 22/20 A3016 RMK SLP214 5//// 955 8/056

EXPIRED METARs :
  • 171340Z 12008KT 7SM BKN070 21/20 A3016 RMK 8/050 HZY ISOL CI
  • 171302Z RTD 12007KT 6SM BKN070 21/20 A3016 RMK 8/050 HZ ISOL CI RTS

TAF AMD TAF MMMA
Valid from the 17 at 14:00 until the 18 at 06:00 UTC


171350Z 1714/1806 12008KT 6SM HZ BKN070
BECMG 1715/1716 12012KT 6SM SCT020 BKN070
BECMG 1720/1721 12018KT
FM180200 16010KT P6SM SCT070 BKN220



MET'MAP, your aeronautical weather chart ! - Copyright ORBIFLY December 2007 - Disclaimer

ORBIFLY MET'MAP TEAM :

Programming & Development : Alexandra Zaïnal
Concept & original design : Baudouin d'Aumeries
Assistance for programming : Marc-Olivier Méhu
Technical & hardware support : Manuel Goepfert

Contact : metmap@orbifly.com




SOURCES & CREDITS :

   NOAA       Earth
Advisory